createdAt,value
2019-05-03T00:04:38.499Z,12.45
2019-05-03T00:09:42.504Z,12.39
2019-05-03T00:14:47.380Z,12.47
2019-05-03T00:19:49.582Z,12.24
2019-05-03T00:25:03.096Z,12.27
2019-05-03T00:29:55.915Z,12.25
2019-05-03T00:35:01.796Z,12.29
2019-05-03T00:40:05.818Z,12.37
2019-05-03T00:45:08.437Z,12.30
2019-05-03T00:50:12.060Z,12.11
2019-05-03T00:55:18.515Z,12.16
2019-05-03T01:00:18.846Z,12.30
2019-05-03T01:05:22.675Z,12.08
2019-05-03T01:10:25.388Z,11.95
2019-05-03T01:15:37.485Z,11.98
2019-05-03T01:20:39.864Z,11.77
2019-05-03T01:25:42.919Z,11.79
2019-05-03T01:30:45.586Z,11.69
2019-05-03T01:35:47.747Z,11.81
2019-05-03T01:40:49.917Z,11.67
2019-05-03T01:45:52.146Z,11.71
2019-05-03T01:51:22.769Z,11.88
2019-05-03T01:56:24.946Z,11.85
2019-05-03T02:01:55.470Z,11.77
2019-05-03T02:06:57.871Z,11.63
2019-05-03T02:12:02.003Z,11.51
2019-05-03T02:17:04.150Z,11.28
2019-05-03T02:22:06.302Z,11.12
2019-05-03T02:27:08.574Z,11.08
2019-05-03T02:32:13.317Z,11.06
2019-05-03T02:37:15.330Z,11.03
2019-05-03T02:42:17.767Z,10.99
2019-05-03T02:47:40.597Z,10.88
2019-05-03T02:52:43.435Z,10.82
2019-05-03T02:57:47.039Z,10.72
2019-05-03T03:02:49.608Z,10.72
2019-05-03T03:07:52.582Z,10.67
2019-05-03T03:12:58.334Z,10.49
2019-05-03T03:18:00.509Z,10.50
2019-05-03T03:23:02.825Z,10.51
2019-05-03T03:28:07.715Z,10.24
2019-05-03T03:33:17.142Z,10.42
2019-05-03T03:38:18.021Z,10.41
2019-05-03T03:43:21.599Z,10.49
2019-05-03T03:48:26.502Z,10.43
2019-05-03T03:53:31.164Z,10.44
2019-05-03T03:58:35.925Z,10.18
2019-05-03T04:03:37.563Z,10.23
2019-05-03T04:08:40.217Z,10.25
2019-05-03T04:13:45.240Z,10.21
2019-05-03T04:19:07.350Z,10.17
2019-05-03T04:24:09.549Z,10.16
2019-05-03T04:29:12.782Z,10.19
2019-05-03T04:34:16.181Z,10.13
2019-05-03T04:39:27.789Z,10.03
2019-05-03T04:44:31.779Z,10.08
2019-05-03T04:49:36.856Z,10.06
2019-05-03T04:54:45.270Z,10.11
2019-05-03T04:59:47.537Z,10.22
2019-05-03T05:04:49.603Z,10.20
2019-05-03T05:09:51.790Z,10.23
2019-05-03T05:14:56.113Z,10.32
2019-05-03T05:20:05.334Z,10.26
2019-05-03T05:25:11.657Z,10.45
2019-05-03T05:30:14.906Z,10.43
2019-05-03T05:35:17.199Z,10.49
2019-05-03T05:40:22.028Z,10.72
2019-05-03T05:45:24.666Z,10.60
2019-05-03T05:50:34.705Z,10.40
2019-05-03T05:55:59.246Z,10.51
2019-05-03T06:01:05.888Z,10.60
2019-05-03T06:06:10.801Z,10.68
2019-05-03T06:11:20.574Z,10.71
2019-05-03T06:16:35.724Z,10.60
2019-05-03T06:21:55.311Z,10.93
2019-05-03T06:27:02.672Z,10.86
2019-05-03T06:32:23.011Z,11.25
2019-05-03T06:37:27.856Z,10.87
2019-05-03T06:42:30.027Z,10.94
2019-05-03T06:47:32.505Z,11.22
2019-05-03T06:52:35.226Z,11.15
2019-05-03T06:57:44.699Z,11.51
2019-05-03T07:02:55.104Z,11.04
2019-05-03T07:08:15.637Z,11.42
2019-05-03T07:13:17.741Z,11.35
2019-05-03T07:18:19.904Z,11.21
2019-05-03T07:23:22.012Z,11.27
2019-05-03T07:28:24.782Z,11.30
2019-05-03T07:33:32.207Z,11.51
2019-05-03T07:38:35.429Z,11.39
2019-05-03T07:43:37.689Z,11.20
2019-05-03T07:48:39.908Z,11.30
2019-05-03T07:53:42.102Z,11.32
2019-05-03T07:59:00.045Z,11.44
2019-05-03T08:03:55.143Z,11.38
2019-05-03T08:08:57.523Z,11.47
2019-05-03T08:13:59.678Z,11.15
2019-05-03T08:19:01.859Z,11.25
2019-05-03T08:24:04.552Z,12.15
2019-05-03T08:29:15.984Z,12.62
2019-05-03T08:34:17.494Z,11.99
2019-05-03T08:39:19.616Z,12.04
2019-05-03T08:44:21.769Z,12.53
2019-05-03T08:49:25.476Z,12.62
2019-05-03T08:54:27.679Z,12.81
2019-05-03T08:59:32.646Z,12.34
2019-05-03T09:04:37.864Z,12.37
2019-05-03T09:10:13.563Z,12.12
2019-05-03T09:15:16.313Z,12.35
2019-05-03T09:20:18.516Z,12.41
2019-05-03T09:25:20.674Z,12.49
2019-05-03T09:30:25.103Z,12.97
2019-05-03T09:35:32.890Z,12.51
2019-05-03T09:40:31.417Z,12.34
2019-05-03T09:45:35.274Z,12.39
2019-05-03T09:50:37.736Z,12.88
2019-05-03T09:55:40.517Z,12.30
2019-05-03T10:00:44.644Z,13.11
2019-05-03T10:05:46.846Z,13.13
2019-05-03T10:11:06.859Z,12.90
2019-05-03T10:16:09.073Z,13.28
2019-05-03T10:21:11.266Z,12.75
2019-05-03T10:26:14.960Z,12.67
2019-05-03T10:31:17.682Z,13.32
2019-05-03T10:36:20.180Z,13.69
2019-05-03T10:41:22.311Z,13.33
2019-05-03T10:46:25.089Z,12.77
2019-05-03T10:51:29.776Z,12.75
2019-05-03T10:56:55.875Z,12.65
2019-05-03T11:02:20.781Z,12.76
2019-05-03T11:07:22.972Z,12.71
2019-05-03T11:12:26.072Z,12.82
2019-05-03T11:17:28.173Z,13.07
2019-05-03T11:22:30.341Z,13.09
2019-05-03T11:27:39.212Z,13.13
2019-05-03T11:32:52.543Z,13.05
2019-05-03T11:38:09.545Z,13.06
2019-05-03T11:43:11.886Z,12.94
2019-05-03T11:48:14.795Z,13.48
2019-05-03T11:53:16.996Z,13.05
2019-05-03T11:58:21.255Z,13.22
2019-05-03T12:03:30.091Z,13.00
2019-05-03T12:08:34.474Z,13.11
2019-05-03T12:13:36.573Z,13.50
2019-05-03T12:18:48.842Z,13.27
2019-05-03T12:23:45.580Z,13.01
2019-05-03T12:28:47.956Z,13.30
2019-05-03T12:33:50.791Z,13.40
2019-05-03T12:38:54.801Z,13.74
2019-05-03T12:43:57.269Z,12.98
2019-05-03T12:48:59.502Z,13.93
2019-05-03T12:54:01.879Z,13.73
2019-05-03T12:59:09.506Z,13.73
2019-05-03T13:04:15.297Z,13.56
2019-05-03T13:09:17.567Z,13.26
2019-05-03T13:14:19.783Z,13.51
2019-05-03T13:19:22.234Z,14.21
2019-05-03T13:24:25.978Z,13.95
2019-05-03T13:29:28.245Z,13.87
2019-05-03T13:34:30.649Z,13.79
2019-05-03T13:39:32.738Z,13.95
2019-05-03T13:44:35.577Z,13.75
2019-05-03T13:49:38.028Z,13.72
2019-05-03T13:54:40.305Z,14.22
2019-05-03T13:59:44.689Z,14.66
2019-05-03T14:04:52.390Z,14.86
2019-05-03T14:09:50.700Z,14.81
2019-05-03T14:14:55.642Z,14.82
2019-05-03T14:20:08.383Z,15.21
2019-05-03T14:25:10.481Z,15.48
2019-05-03T14:30:14.607Z,15.03
2019-05-03T14:35:16.876Z,15.41
2019-05-03T14:40:19.100Z,14.68
2019-05-03T14:45:21.233Z,14.94
2019-05-03T14:50:25.450Z,15.76
2019-05-03T14:55:39.543Z,15.26
2019-05-03T15:00:48.995Z,15.57
2019-05-03T15:05:51.180Z,16.64
2019-05-03T15:10:54.692Z,16.62
2019-05-03T15:15:56.909Z,15.94
2019-05-03T15:20:59.317Z,17.08
2019-05-03T15:26:01.472Z,16.02
2019-05-03T15:31:04.593Z,15.77
2019-05-03T15:36:07.144Z,17.25
2019-05-03T15:41:09.348Z,17.30
2019-05-03T15:46:37.351Z,17.94
2019-05-03T15:51:39.578Z,17.96
2019-05-03T15:56:41.798Z,16.72
2019-05-03T16:01:44.007Z,15.48
2019-05-03T16:06:46.519Z,16.48
2019-05-03T16:11:48.963Z,17.18
2019-05-03T16:16:54.812Z,17.95
2019-05-03T16:21:57.189Z,16.91
2019-05-03T16:27:24.716Z,16.30
2019-05-03T16:32:27.041Z,15.94
2019-05-03T16:37:29.317Z,15.94
2019-05-03T16:42:31.542Z,15.41
2019-05-03T16:47:35.445Z,14.90
2019-05-03T16:52:37.821Z,15.84
2019-05-03T16:57:40.421Z,16.08
2019-05-03T17:02:44.319Z,16.70
2019-05-03T17:07:52.459Z,16.22
2019-05-03T17:12:56.879Z,15.22
2019-05-03T17:17:58.707Z,16.20
2019-05-03T17:23:00.890Z,15.59
2019-05-03T17:28:04.877Z,14.76
2019-05-03T17:33:07.373Z,14.34
2019-05-03T17:38:10.011Z,14.16
2019-05-03T17:43:19.768Z,13.76
2019-05-03T17:48:21.998Z,13.63
2019-05-03T17:53:54.742Z,13.60
2019-05-03T17:59:25.707Z,13.42
2019-05-03T18:04:49.903Z,13.43
2019-05-03T18:09:52.397Z,13.34
2019-05-03T18:14:55.410Z,13.08
2019-05-03T18:19:57.808Z,13.10
2019-05-03T18:25:00.143Z,12.86
2019-05-03T18:30:08.846Z,12.86
2019-05-03T18:35:12.036Z,12.79
2019-05-03T18:40:14.265Z,12.69
2019-05-03T18:45:21.965Z,12.53
2019-05-03T18:50:24.608Z,12.61
2019-05-03T18:55:26.674Z,12.33
2019-05-03T19:00:29.470Z,12.37
2019-05-03T19:05:34.850Z,12.26
2019-05-03T19:10:44.645Z,12.17
2019-05-03T19:15:47.165Z,12.16
2019-05-03T19:20:49.552Z,12.19
2019-05-03T19:25:51.661Z,12.14
2019-05-03T19:30:54.912Z,12.17
2019-05-03T19:36:00.175Z,12.20
2019-05-03T19:41:01.610Z,12.16
2019-05-03T19:46:04.567Z,12.19
2019-05-03T19:51:07.910Z,12.07
2019-05-03T19:56:10.307Z,12.15
2019-05-03T20:01:34.955Z,11.98
2019-05-03T20:06:45.221Z,11.93
2019-05-03T20:11:47.470Z,11.96
2019-05-03T20:16:49.637Z,11.99
2019-05-03T20:21:52.047Z,11.80
2019-05-03T20:26:54.300Z,11.87
2019-05-03T20:31:56.766Z,11.75
2019-05-03T20:36:59.022Z,11.79
2019-05-03T20:42:01.229Z,11.83
2019-05-03T20:47:25.234Z,11.71
2019-05-03T20:52:27.597Z,11.73
2019-05-03T20:57:30.184Z,11.58
2019-05-03T21:02:34.383Z,11.54
2019-05-03T21:08:00.705Z,11.53
2019-05-03T21:20:25.398Z,11.32
2019-05-03T21:26:12.874Z,11.48
2019-05-03T21:31:10.895Z,11.40
2019-05-03T21:36:15.071Z,11.33
2019-05-03T21:41:17.432Z,11.35
2019-05-03T21:46:26.835Z,11.07
2019-05-03T21:51:29.027Z,10.99
2019-05-03T21:56:31.693Z,11.07
2019-05-03T22:01:37.513Z,11.06
2019-05-03T22:06:49.138Z,11.04
2019-05-03T22:12:11.224Z,10.99
2019-05-03T22:17:44.660Z,10.89
2019-05-03T22:22:56.721Z,10.85
2019-05-03T22:29:10.304Z,10.66
2019-05-03T22:34:25.490Z,10.69
2019-05-03T22:39:42.078Z,10.70
2019-05-03T22:45:27.491Z,10.70
2019-05-03T22:50:36.218Z,10.76
2019-05-03T22:55:48.618Z,10.62
2019-05-03T23:01:12.273Z,10.78
2019-05-03T23:06:28.130Z,10.86
2019-05-03T23:12:05.538Z,10.63
2019-05-03T23:23:51.954Z,10.66
2019-05-03T23:29:16.167Z,10.54
2019-05-03T23:34:41.816Z,10.74
2019-05-03T23:40:12.056Z,10.77
2019-05-03T23:45:27.964Z,10.61
2019-05-03T23:50:51.762Z,10.41
2019-05-03T23:56:21.133Z,10.36
